Etusivu
METAR-TAF:

METAR-TAF

Lentoasemat :

Seneca, Oregon, Yhdysvallat

Leveyspiiri: 44-08-18N, Pituuspiiri: 118-58-54W, korkeus merenpinnasta: 1422 m

Tämänhetkinen sää

Tämä raportti tehtiin 12 minuuttia sitten, kello 19.15 UTC
Tuuli 8 kn luoteesta, vaihdellen lännen/luoteen ja pohjoisen välillä
Lämpötila 13°C
Kosteus 62%
Ilmanpaine 1007 hPa
Näkyvyys: 16.1 km
Hajonneita pilviä 3500 ft:n korkeudessa
Hajonneita pilviä 5000 ft:n korkeudessa

METAR: KGCD 201915Z AUTO 31008KT 290V350 10SM BKN035 BKN050 13/06 A2973 RMK AO2 T01270055

Aika: 12:27 (19:27 UTC)


TAF: puuttuu

Säähavainnot ja -ennusteet yli 4000 lentoasemalta (METAR- ja TAF-raportit).

Käytössä olevat sääasemat on merkitty karttaan keltaisilla ja punaisilla pisteillä.

Aseta hiiri pisteen päälle nähdäksesi sääaseman nimen.

Klikkaa sitten nähdäksesi säähavainnot ja -ennusteet.

Kartan vaihtaminen: klikkaa mustalla rastilla varustettuja vihreitä pisteitä, niin voit zoomata sisään; viivalla varustettua vihreää pistettä, niin voit zoomata ulos tai vihreitä nuolia, niin pääset viereisille kartoille.


METAR-TAF: